createdAt,value
2019-04-26T00:01:37.731Z,55.73
2019-04-26T00:04:45.084Z,55.98
2019-04-26T00:07:52.706Z,55.99
2019-04-26T00:11:14.342Z,56.13
2019-04-26T00:14:55.239Z,56.43
2019-04-26T00:18:02.183Z,56.59
2019-04-26T00:21:09.596Z,56.47
2019-04-26T00:24:19.348Z,56.63
2019-04-26T00:27:26.227Z,56.74
2019-04-26T00:30:32.855Z,57.31
2019-04-26T00:33:39.541Z,57.85
2019-04-26T00:36:48.606Z,57.56
2019-04-26T00:39:56.204Z,56.84
2019-04-26T00:43:06.355Z,57.01
2019-04-26T00:46:14.706Z,57.13
2019-04-26T00:49:24.743Z,57.24
2019-04-26T00:52:31.929Z,56.92
2019-04-26T00:55:38.842Z,57.64
2019-04-26T00:58:45.987Z,57.93
2019-04-26T01:01:57.294Z,58.20
2019-04-26T01:05:04.035Z,57.99
2019-04-26T01:08:10.609Z,58.41
2019-04-26T01:11:17.671Z,59.15
2019-04-26T01:14:24.402Z,58.90
2019-04-26T01:17:31.083Z,59.42
2019-04-26T01:20:40.869Z,59.78
2019-04-26T01:23:50.649Z,59.63
2019-04-26T01:27:00.232Z,59.67
2019-04-26T01:30:11.509Z,60.04
2019-04-26T01:33:18.753Z,59.91
2019-04-26T01:36:29.126Z,60.29
2019-04-26T01:39:38.441Z,60.50
2019-04-26T01:42:54.441Z,60.17
2019-04-26T01:46:10.372Z,60.32
2019-04-26T01:49:21.341Z,60.22
2019-04-26T01:52:29.737Z,60.42
2019-04-26T01:55:36.576Z,61.13
2019-04-26T01:58:43.550Z,60.91
2019-04-26T02:02:08.329Z,60.56
2019-04-26T02:05:22.588Z,61.35
2019-04-26T02:08:30.374Z,60.78
2019-04-26T02:11:37.387Z,61.10
2019-04-26T02:14:44.178Z,61.70
2019-04-26T02:17:54.130Z,60.70
2019-04-26T02:21:16.344Z,60.89
2019-04-26T02:24:37.923Z,61.46
2019-04-26T02:27:44.668Z,61.56
2019-04-26T02:30:51.593Z,61.62
2019-04-26T02:33:59.102Z,61.57
2019-04-26T02:37:08.978Z,62.73
2019-04-26T02:40:18.730Z,62.65
2019-04-26T02:43:28.607Z,61.39
2019-04-26T02:46:48.862Z,62.46
2019-04-26T02:50:03.093Z,63.73
2019-04-26T02:53:39.693Z,63.46
2019-04-26T02:56:48.559Z,63.07
2019-04-26T03:00:05.531Z,61.70
2019-04-26T03:03:14.137Z,62.83
2019-04-26T03:06:20.928Z,64.10
2019-04-26T03:09:31.355Z,64.01
2019-04-26T03:12:43.205Z,63.14
2019-04-26T03:16:10.849Z,62.74
2019-04-26T03:19:36.207Z,63.47
2019-04-26T03:23:16.862Z,62.66
2019-04-26T03:26:48.343Z,62.48
2019-04-26T03:30:22.098Z,63.73
2019-04-26T03:34:13.877Z,63.39
2019-04-26T03:37:44.523Z,63.96
2019-04-26T03:41:08.909Z,63.77
2019-04-26T03:44:38.853Z,65.95
2019-04-26T03:48:09.627Z,64.64
2019-04-26T03:51:45.283Z,64.37
2019-04-26T03:54:56.501Z,64.21
2019-04-26T03:58:08.730Z,63.24
2019-04-26T04:01:16.835Z,64.27
2019-04-26T04:04:37.726Z,64.46
2019-04-26T04:07:50.958Z,64.32
2019-04-26T04:11:05.359Z,64.53
2019-04-26T04:14:40.500Z,65.22
2019-04-26T04:18:12.444Z,63.82
2019-04-26T04:21:47.057Z,64.72
2019-04-26T04:24:58.816Z,67.37
2019-04-26T04:28:27.393Z,67.27
2019-04-26T04:31:42.160Z,69.04
2019-04-26T04:34:53.713Z,70.04
2019-04-26T04:38:11.409Z,69.05
2019-04-26T04:41:34.199Z,71.75
2019-04-26T04:45:06.177Z,68.68
2019-04-26T04:48:22.035Z,69.53
2019-04-26T04:52:27.451Z,70.06
2019-04-26T04:56:16.787Z,73.76
2019-04-26T05:00:00.726Z,72.38
2019-04-26T05:03:28.914Z,69.19
2019-04-26T05:07:16.988Z,70.25
2019-04-26T05:10:37.003Z,71.13
2019-04-26T05:14:03.989Z,68.28
2019-04-26T05:17:59.292Z,69.30
2019-04-26T05:21:30.545Z,67.10
2019-04-26T05:24:59.884Z,66.26
2019-04-26T05:28:19.299Z,65.69
2019-04-26T05:32:29.545Z,65.08
2019-04-26T05:37:06.860Z,65.43
2019-04-26T05:40:42.852Z,65.55
2019-04-26T05:44:17.711Z,64.16
2019-04-26T05:48:05.241Z,64.19
2019-04-26T05:52:14.127Z,64.53
2019-04-26T05:56:38.263Z,64.32
2019-04-26T06:00:24.665Z,64.13
2019-04-26T06:04:25.274Z,63.76
2019-04-26T06:08:31.230Z,62.47
2019-04-26T06:11:42.744Z,62.88
2019-04-26T06:15:43.501Z,62.12
2019-04-26T06:19:18.091Z,62.65
2019-04-26T06:22:59.714Z,61.27
2019-04-26T06:27:14.152Z,60.25
2019-04-26T06:30:45.062Z,59.50
2019-04-26T06:34:07.687Z,58.87
2019-04-26T06:37:57.310Z,59.52
2019-04-26T06:42:00.778Z,58.93
2019-04-26T06:45:43.774Z,59.87
2019-04-26T06:49:31.090Z,58.70
2019-04-26T06:52:59.672Z,58.73
2019-04-26T06:56:53.023Z,59.20
2019-04-26T07:00:20.325Z,59.50
2019-04-26T07:03:49.272Z,59.29
2019-04-26T07:07:18.907Z,58.12
2019-04-26T07:11:11.804Z,57.85
2019-04-26T07:15:03.824Z,57.33
2019-04-26T07:18:46.825Z,57.84
2019-04-26T07:22:34.744Z,56.45
2019-04-26T07:26:45.329Z,55.59
2019-04-26T07:30:23.536Z,56.23
2019-04-26T07:34:32.249Z,56.76
2019-04-26T07:38:52.947Z,57.23
2019-04-26T07:42:53.600Z,55.92
2019-04-26T07:46:43.624Z,56.20
2019-04-26T07:50:57.121Z,55.39
2019-04-26T07:55:18.369Z,56.66
2019-04-26T07:59:27.273Z,55.49
2019-04-26T08:02:57.349Z,56.54
2019-04-26T08:06:36.868Z,55.83
2019-04-26T08:09:59.905Z,56.21
2019-04-26T08:13:13.756Z,56.73
2019-04-26T08:16:56.787Z,55.40
2019-04-26T08:20:28.196Z,55.72
2019-04-26T08:23:44.544Z,54.89
2019-04-26T08:27:13.637Z,56.03
2019-04-26T08:30:19.301Z,56.07
2019-04-26T08:33:35.410Z,55.33
2019-04-26T08:37:06.718Z,55.72
2019-04-26T08:40:23.296Z,55.63
2019-04-26T08:43:49.981Z,54.47
2019-04-26T08:47:14.081Z,55.01
2019-04-26T08:50:20.748Z,54.51
2019-04-26T08:53:31.870Z,54.96
2019-04-26T08:56:46.676Z,54.14
2019-04-26T08:59:57.838Z,54.90
2019-04-26T09:03:18.455Z,54.36
2019-04-26T09:06:49.845Z,55.10
2019-04-26T09:10:01.540Z,54.33
2019-04-26T09:13:11.576Z,54.14
2019-04-26T09:16:21.118Z,53.20
2019-04-26T09:19:30.540Z,54.81
2019-04-26T09:23:04.948Z,53.58
2019-04-26T09:26:14.936Z,53.65
2019-04-26T09:29:31.777Z,53.81
2019-04-26T09:33:03.556Z,53.56
2019-04-26T09:36:10.133Z,53.46
2019-04-26T09:39:17.445Z,53.25
2019-04-26T09:42:41.766Z,52.81
2019-04-26T09:45:59.590Z,52.74
2019-04-26T09:49:29.186Z,53.13
2019-04-26T09:52:46.113Z,53.46
2019-04-26T09:55:55.684Z,53.37
2019-04-26T09:59:05.700Z,52.57
2019-04-26T10:02:11.423Z,52.96
2019-04-26T10:05:22.162Z,53.39
2019-04-26T10:08:26.826Z,54.11
2019-04-26T10:11:39.587Z,54.60
2019-04-26T10:15:12.316Z,55.75
2019-04-26T10:18:20.327Z,54.15
2019-04-26T10:21:27.736Z,51.95
2019-04-26T10:24:34.672Z,53.06
2019-04-26T10:27:44.461Z,52.16
2019-04-26T10:30:51.450Z,51.78
2019-04-26T10:33:58.215Z,52.28
2019-04-26T10:41:08.336Z,52.39
2019-04-26T10:44:14.876Z,51.64
2019-04-26T10:47:21.405Z,52.20
2019-04-26T10:50:28.787Z,52.96
2019-04-26T10:53:44.481Z,52.36
2019-04-26T10:56:59.624Z,51.49
2019-04-26T11:00:14.152Z,51.38
2019-04-26T11:03:19.514Z,49.44
2019-04-26T11:06:27.873Z,51.09
2019-04-26T11:09:35.146Z,49.55
2019-04-26T11:12:44.829Z,51.04
2019-04-26T11:15:52.791Z,52.38
2019-04-26T11:19:01.107Z,50.39
2019-04-26T11:22:07.994Z,51.18
2019-04-26T11:25:14.698Z,50.64
2019-04-26T11:28:22.908Z,53.40
2019-04-26T11:31:30.800Z,51.51
2019-04-26T11:34:42.822Z,50.75
2019-04-26T11:37:50.709Z,50.47
2019-04-26T11:41:05.779Z,49.84
2019-04-26T11:44:06.160Z,50.28
2019-04-26T11:47:12.939Z,51.08
2019-04-26T11:50:20.858Z,49.72
2019-04-26T11:53:27.353Z,50.11
2019-04-26T11:56:37.465Z,52.05
2019-04-26T11:59:44.193Z,51.50
2019-04-26T12:02:52.273Z,50.54
2019-04-26T12:06:17.713Z,50.32
2019-04-26T12:09:49.246Z,50.36
2019-04-26T12:13:05.126Z,49.39
2019-04-26T12:16:04.218Z,49.66
2019-04-26T12:19:14.309Z,49.56
2019-04-26T12:22:20.025Z,49.40
2019-04-26T12:25:26.744Z,50.53
2019-04-26T12:28:36.346Z,50.28
2019-04-26T12:31:43.042Z,50.52
2019-04-26T12:34:52.157Z,51.49
2019-04-26T12:38:02.844Z,51.89
2019-04-26T12:41:11.629Z,53.73
2019-04-26T12:44:19.289Z,54.52
2019-04-26T12:47:34.529Z,53.68
2019-04-26T12:50:39.443Z,53.76
2019-04-26T12:53:47.354Z,53.15
2019-04-26T12:56:55.605Z,53.11
2019-04-26T13:00:03.547Z,52.71
2019-04-26T13:03:20.023Z,54.44
2019-04-26T13:06:19.076Z,56.23
2019-04-26T13:09:26.735Z,56.13
2019-04-26T13:12:44.264Z,56.81
2019-04-26T13:15:56.815Z,55.79
2019-04-26T13:19:06.604Z,56.13
2019-04-26T13:22:14.283Z,56.84
2019-04-26T13:25:26.509Z,56.04
2019-04-26T13:28:29.499Z,56.46
2019-04-26T13:31:38.838Z,55.92
2019-04-26T13:34:45.516Z,56.21
2019-04-26T13:37:51.982Z,55.42
2019-04-26T13:40:59.841Z,54.06
2019-04-26T13:44:07.200Z,52.92
2019-04-26T13:47:47.666Z,53.86
2019-04-26T13:51:01.280Z,54.53
2019-04-26T13:54:07.011Z,54.77
2019-04-26T13:57:13.552Z,55.36
2019-04-26T14:00:26.439Z,55.48
2019-04-26T14:03:34.551Z,54.43
2019-04-26T14:06:41.054Z,54.55
2019-04-26T14:09:48.153Z,54.26
2019-04-26T14:12:54.659Z,53.70
2019-04-26T14:16:01.260Z,54.99
2019-04-26T14:19:14.448Z,54.41
2019-04-26T14:22:20.172Z,54.19
2019-04-26T14:25:32.050Z,55.00
2019-04-26T14:28:38.728Z,54.70
2019-04-26T14:31:47.249Z,53.92
2019-04-26T14:34:53.494Z,53.61
2019-04-26T14:38:00.154Z,55.14
2019-04-26T14:41:06.925Z,54.60
2019-04-26T14:44:15.586Z,56.25
2019-04-26T14:47:22.049Z,56.32
2019-04-26T14:50:32.088Z,56.78
2019-04-26T14:53:38.067Z,56.66
2019-04-26T14:56:52.120Z,56.66
2019-04-26T14:59:58.504Z,57.61
2019-04-26T15:03:17.393Z,57.36
2019-04-26T15:06:29.595Z,58.11
2019-04-26T15:09:36.735Z,59.36
2019-04-26T15:12:48.797Z,59.33
2019-04-26T15:15:55.111Z,59.27
2019-04-26T15:19:01.764Z,59.77
2019-04-26T15:22:10.305Z,60.46
2019-04-26T15:25:19.763Z,60.76
2019-04-26T15:28:27.043Z,60.74
2019-04-26T15:31:34.178Z,61.26
2019-04-26T15:34:40.842Z,62.47
2019-04-26T15:37:47.317Z,62.13
2019-04-26T15:41:16.727Z,62.17
2019-04-26T15:49:15.699Z,63.12
2019-04-26T15:52:23.544Z,62.92
2019-04-26T15:55:33.854Z,63.18
2019-04-26T15:58:45.925Z,62.85
2019-04-26T16:01:52.147Z,62.67
2019-04-26T16:04:58.775Z,62.54
2019-04-26T16:08:07.288Z,62.96
2019-04-26T16:11:14.043Z,63.44
2019-04-26T16:14:26.391Z,64.10
2019-04-26T16:17:28.961Z,65.14
2019-04-26T16:20:48.838Z,64.75
2019-04-26T16:23:57.483Z,64.82
2019-04-26T16:27:08.455Z,65.24
2019-04-26T16:30:35.409Z,65.58
2019-04-26T16:33:41.069Z,65.47
2019-04-26T16:36:47.646Z,65.22
2019-04-26T16:39:56.348Z,65.37
2019-04-26T16:43:04.159Z,65.42
2019-04-26T16:46:12.589Z,65.50
2019-04-26T16:49:19.916Z,66.07
2019-04-26T16:52:33.326Z,66.02
2019-04-26T16:55:48.887Z,64.72
2019-04-26T16:58:50.168Z,66.25
2019-04-26T17:02:01.433Z,67.85
2019-04-26T17:05:19.084Z,67.65
2019-04-26T17:08:18.988Z,68.08
2019-04-26T17:11:23.068Z,68.30
2019-04-26T17:14:29.963Z,69.72
2019-04-26T17:17:37.032Z,72.49
2019-04-26T17:20:44.938Z,73.34
2019-04-26T17:24:12.207Z,76.28
2019-04-26T17:27:19.652Z,77.76
2019-04-26T17:30:26.589Z,79.71
2019-04-26T17:33:35.551Z,80.94
2019-04-26T17:36:46.482Z,83.00
2019-04-26T17:39:57.440Z,83.84
2019-04-26T17:43:05.437Z,84.68
2019-04-26T17:46:14.575Z,86.26
2019-04-26T17:49:26.986Z,87.06
2019-04-26T17:52:35.823Z,87.54
2019-04-26T17:55:37.819Z,87.08
2019-04-26T17:58:52.466Z,88.90
2019-04-26T18:02:00.902Z,88.41
2019-04-26T18:05:03.601Z,88.42
2019-04-26T18:08:33.744Z,89.15
2019-04-26T18:11:24.757Z,90.69
2019-04-26T18:14:30.319Z,90.60
2019-04-26T18:18:17.407Z,91.57
2019-04-26T18:21:49.640Z,92.51
2019-04-26T18:24:55.786Z,91.46
2019-04-26T18:28:04.499Z,92.10
2019-04-26T18:31:14.824Z,90.33
2019-04-26T18:34:21.118Z,91.49
2019-04-26T18:37:27.905Z,90.33
2019-04-26T18:40:58.501Z,89.09
2019-04-26T18:43:46.299Z,92.10
2019-04-26T18:46:59.032Z,90.02
2019-04-26T18:50:06.768Z,88.96
2019-04-26T18:53:39.600Z,87.75
2019-04-26T18:56:49.690Z,87.90
2019-04-26T18:59:56.460Z,87.55
2019-04-26T19:03:03.052Z,87.33
2019-04-26T19:06:09.674Z,87.58
2019-04-26T19:09:18.697Z,87.32
2019-04-26T19:12:27.111Z,86.64
2019-04-26T19:15:51.695Z,86.12
2019-04-26T19:19:22.588Z,88.32
2019-04-26T19:22:22.540Z,84.43
2019-04-26T19:25:33.258Z,85.14
2019-04-26T19:28:39.929Z,85.92
2019-04-26T19:31:46.282Z,87.15
2019-04-26T19:34:52.886Z,85.81
2019-04-26T19:37:59.520Z,86.22
2019-04-26T19:41:06.124Z,85.13
2019-04-26T19:44:14.739Z,86.64
2019-04-26T19:47:35.435Z,86.34
2019-04-26T19:50:50.192Z,88.22
2019-04-26T19:54:02.753Z,91.07
2019-04-26T19:57:38.870Z,88.51
2019-04-26T20:00:46.510Z,90.00
2019-04-26T20:03:55.049Z,90.67
2019-04-26T20:07:01.257Z,89.33
2019-04-26T20:10:08.261Z,91.22
2019-04-26T20:13:16.639Z,86.63
2019-04-26T20:16:25.821Z,87.30
2019-04-26T20:19:37.305Z,89.45
2019-04-26T20:22:42.137Z,92.88
2019-04-26T20:25:52.763Z,92.71
2019-04-26T20:28:58.946Z,92.43
2019-04-26T20:32:24.025Z,92.95
2019-04-26T20:35:31.852Z,92.03
2019-04-26T20:38:45.540Z,92.61
2019-04-26T20:41:46.854Z,92.81
2019-04-26T20:44:53.882Z,93.82
2019-04-26T20:48:02.230Z,92.77
2019-04-26T20:51:11.023Z,93.17
2019-04-26T20:54:17.435Z,94.17
2019-04-26T20:57:26.631Z,94.58
2019-04-26T21:00:36.516Z,93.24
2019-04-26T21:03:45.888Z,93.10
2019-04-26T21:06:52.050Z,93.10
2019-04-26T21:09:59.507Z,93.27
2019-04-26T21:13:06.558Z,94.04
2019-04-26T21:16:15.519Z,94.88
2019-04-26T21:19:22.030Z,94.65
2019-04-26T21:22:28.931Z,94.75
2019-04-26T21:25:56.296Z,94.53
2019-04-26T21:29:33.622Z,94.10
2019-04-26T21:33:03.500Z,91.52
2019-04-26T21:36:23.224Z,92.15
2019-04-26T21:39:49.899Z,91.51
2019-04-26T21:42:59.550Z,91.79
2019-04-26T21:46:19.378Z,94.96
2019-04-26T21:49:39.932Z,93.73
2019-04-26T21:52:46.563Z,94.75
2019-04-26T21:55:54.642Z,96.45
2019-04-26T21:59:01.227Z,93.94
2019-04-26T22:02:08.337Z,96.37
2019-04-26T22:05:17.969Z,96.33
2019-04-26T22:08:30.972Z,95.00
2019-04-26T22:11:36.153Z,94.52
2019-04-26T22:14:46.444Z,92.31
2019-04-26T22:17:56.042Z,89.87
2019-04-26T22:21:08.834Z,92.02
2019-04-26T22:24:23.732Z,91.71
2019-04-26T22:27:32.070Z,93.08
2019-04-26T22:30:38.693Z,93.24
2019-04-26T22:33:45.075Z,94.14
2019-04-26T22:36:53.543Z,93.85
2019-04-26T22:39:59.751Z,93.65
2019-04-26T22:43:44.361Z,92.41
2019-04-26T22:47:09.864Z,94.54
2019-04-26T22:50:20.783Z,90.15
2019-04-26T22:53:25.860Z,93.24
2019-04-26T22:56:37.136Z,94.58
2019-04-26T22:59:49.734Z,88.59
2019-04-26T23:02:53.371Z,93.55
2019-04-26T23:05:59.952Z,91.46
2019-04-26T23:09:11.517Z,94.55
2019-04-26T23:12:34.478Z,93.79
2019-04-26T23:16:00.643Z,95.66
2019-04-26T23:19:29.877Z,93.48
2019-04-26T23:22:36.373Z,94.90
2019-04-26T23:25:43.504Z,95.76
2019-04-26T23:28:51.441Z,92.14
2019-04-26T23:31:59.520Z,93.17
2019-04-26T23:35:06.366Z,93.54
2019-04-26T23:38:14.019Z,90.85
2019-04-26T23:41:20.534Z,95.25
2019-04-26T23:44:27.000Z,96.23
2019-04-26T23:47:38.657Z,95.69
2019-04-26T23:50:43.289Z,95.57
2019-04-26T23:53:50.495Z,88.96
2019-04-26T23:56:57.919Z,93.26
